createdAt,value
2023-04-05T00:00:59.872Z,25.72
2023-04-05T00:01:59.911Z,25.71
2023-04-05T00:03:00.067Z,25.71
2023-04-05T00:04:00.096Z,25.71
2023-04-05T00:05:00.135Z,25.71
2023-04-05T00:06:00.156Z,25.73
2023-04-05T00:07:00.205Z,25.70
2023-04-05T00:08:00.182Z,25.72
2023-04-05T00:09:00.219Z,25.73
2023-04-05T00:10:00.275Z,25.70
2023-04-05T00:11:00.306Z,25.70
2023-04-05T00:12:00.347Z,25.70
2023-04-05T00:13:00.416Z,25.70
2023-04-05T00:14:00.438Z,25.69
2023-04-05T00:15:00.462Z,25.69
2023-04-05T00:16:00.543Z,25.70
2023-04-05T00:17:00.519Z,25.69
2023-04-05T00:18:00.603Z,25.69
2023-04-05T00:19:00.603Z,25.69
2023-04-05T00:20:00.649Z,25.69
2023-04-05T00:21:00.665Z,25.68
2023-04-05T00:22:00.717Z,25.68
2023-04-05T00:23:00.750Z,25.70
2023-04-05T00:24:00.780Z,25.68
2023-04-05T00:25:00.807Z,25.67
2023-04-05T00:26:00.845Z,25.69
2023-04-05T00:27:00.922Z,25.69
2023-04-05T00:28:00.954Z,25.70
2023-04-05T00:29:01.010Z,25.67
2023-04-05T00:30:01.380Z,25.67
2023-04-05T00:31:01.075Z,25.67
2023-04-05T00:32:01.154Z,25.68
2023-04-05T00:33:01.223Z,25.66
2023-04-05T00:34:01.215Z,25.66
2023-04-05T00:35:01.277Z,25.68
2023-04-05T00:36:01.309Z,25.67
2023-04-05T00:37:01.303Z,25.68
2023-04-05T00:38:01.357Z,25.67
2023-04-05T00:39:01.394Z,25.67
2023-04-05T00:40:01.441Z,25.66
2023-04-05T00:41:01.469Z,25.66
2023-04-05T00:42:01.512Z,25.67
2023-04-05T00:43:01.514Z,25.64
2023-04-05T00:44:01.532Z,25.64
2023-04-05T00:45:01.565Z,25.66
2023-04-05T00:46:01.663Z,25.64
2023-04-05T00:47:01.632Z,25.66
2023-04-05T00:48:01.742Z,25.63
2023-04-05T00:49:01.716Z,25.62
2023-04-05T00:50:01.743Z,25.64
2023-04-05T00:51:01.820Z,25.63
2023-04-05T00:52:01.804Z,25.61
2023-04-05T00:53:01.854Z,25.65
2023-04-05T00:54:01.858Z,25.63
2023-04-05T00:55:01.889Z,25.67
2023-04-05T00:56:01.924Z,25.63
2023-04-05T00:57:01.885Z,25.63
2023-04-05T00:58:01.881Z,25.66
2023-04-05T00:59:01.935Z,25.64
2023-04-05T01:00:01.925Z,25.62
2023-04-05T01:01:01.966Z,25.64
2023-04-05T01:02:01.951Z,25.64
2023-04-05T01:03:02.020Z,25.64
2023-04-05T01:04:01.972Z,25.63
2023-04-05T01:05:01.974Z,25.65
2023-04-05T01:06:01.951Z,25.63
2023-04-05T01:07:01.962Z,25.63
2023-04-05T01:08:01.965Z,25.61
2023-04-05T01:09:01.973Z,25.63
2023-04-05T01:10:01.976Z,25.63
2023-04-05T01:11:01.997Z,25.61
2023-04-05T01:12:02.021Z,25.62
2023-04-05T01:13:02.073Z,25.64
2023-04-05T01:14:02.069Z,25.62
2023-04-05T01:15:02.162Z,25.62
2023-04-05T01:16:02.243Z,25.61
2023-04-05T01:17:02.132Z,25.63
2023-04-05T01:18:02.273Z,25.61
2023-04-05T01:19:02.177Z,25.62
2023-04-05T01:20:02.181Z,25.62
2023-04-05T01:21:02.193Z,25.63
2023-04-05T01:22:02.193Z,25.60
2023-04-05T01:23:02.199Z,25.62
2023-04-05T01:24:02.246Z,25.61
2023-04-05T01:25:02.218Z,25.59
2023-04-05T01:26:02.802Z,25.59
2023-04-05T01:27:02.239Z,25.59
2023-04-05T01:28:02.246Z,25.62
2023-04-05T01:29:02.284Z,25.57
2023-04-05T01:30:02.322Z,25.58
2023-04-05T01:31:02.358Z,25.56
2023-04-05T01:32:02.457Z,25.60
2023-04-05T01:33:02.463Z,25.59
2023-04-05T01:34:02.405Z,25.57
2023-04-05T01:35:02.395Z,25.56
2023-04-05T01:36:02.431Z,25.57
2023-04-05T01:37:02.426Z,25.57
2023-04-05T01:38:02.427Z,25.57
2023-04-05T01:39:02.441Z,25.55
2023-04-05T01:40:02.465Z,25.56
2023-04-05T01:41:02.464Z,25.55
2023-04-05T01:42:02.486Z,25.57
2023-04-05T01:43:02.531Z,25.55
2023-04-05T01:44:02.442Z,25.54
2023-04-05T01:45:02.423Z,25.55
2023-04-05T01:46:02.455Z,25.53
2023-04-05T01:47:02.432Z,25.55
2023-04-05T01:48:03.375Z,25.54
2023-04-05T01:49:02.408Z,25.55
2023-04-05T01:50:02.385Z,25.54
2023-04-05T01:51:02.398Z,25.54
2023-04-05T01:52:02.411Z,25.56
2023-04-05T01:53:02.382Z,25.52
2023-04-05T01:54:02.367Z,25.53
2023-04-05T01:55:02.347Z,25.54
2023-04-05T01:56:02.320Z,25.53
2023-04-05T01:57:02.320Z,25.53
2023-04-05T01:58:02.357Z,25.54
2023-04-05T01:59:02.288Z,25.54
2023-04-05T02:00:02.234Z,25.52
2023-04-05T02:01:02.245Z,25.54
2023-04-05T02:02:02.232Z,25.51
2023-04-05T02:03:02.317Z,25.51
2023-04-05T02:04:02.268Z,25.51
2023-04-05T02:05:02.271Z,25.51
2023-04-05T02:06:02.255Z,25.49
2023-04-05T02:07:02.268Z,25.50
2023-04-05T02:08:02.265Z,25.47
2023-04-05T02:09:02.450Z,25.51
2023-04-05T02:10:02.293Z,25.51
2023-04-05T02:11:02.279Z,25.50
2023-04-05T02:12:02.317Z,25.49
2023-04-05T02:13:02.244Z,25.48
2023-04-05T02:14:02.254Z,25.49
2023-04-05T02:15:02.225Z,25.48
2023-04-05T02:16:02.233Z,25.47
2023-04-05T02:17:02.155Z,25.45
2023-04-05T02:18:02.333Z,25.47
2023-04-05T02:19:02.132Z,25.48
2023-04-05T02:20:02.127Z,25.49
2023-04-05T02:21:02.081Z,25.49
2023-04-05T02:22:02.894Z,25.49
2023-04-05T02:23:02.103Z,25.49
2023-04-05T02:24:02.067Z,25.47
2023-04-05T02:25:02.038Z,25.48
2023-04-05T02:26:02.024Z,25.47
2023-04-05T02:27:02.011Z,25.47
2023-04-05T02:28:01.961Z,25.47
2023-04-05T02:29:01.960Z,25.46
2023-04-05T02:30:01.948Z,25.48
2023-04-05T02:31:01.941Z,25.45
2023-04-05T02:32:01.923Z,25.42
2023-04-05T02:33:01.940Z,25.43
2023-04-05T02:34:01.864Z,25.45
2023-04-05T02:35:01.863Z,25.45
2023-04-05T02:36:01.900Z,25.46
2023-04-05T02:37:01.908Z,25.44
2023-04-05T02:38:01.915Z,25.45
2023-04-05T02:39:01.829Z,25.44
2023-04-05T02:40:01.819Z,25.46
2023-04-05T02:41:01.801Z,25.43
2023-04-05T02:42:01.789Z,25.43
2023-04-05T02:43:01.771Z,25.44
2023-04-05T02:44:01.772Z,25.42
2023-04-05T02:45:01.794Z,25.41
2023-04-05T02:46:01.814Z,25.42
2023-04-05T02:47:01.730Z,25.41
2023-04-05T02:48:01.820Z,25.40
2023-04-05T02:49:01.683Z,25.44
2023-04-05T02:50:01.671Z,25.44
2023-04-05T02:51:01.678Z,25.42
2023-04-05T02:52:01.683Z,25.43
2023-04-05T02:53:01.679Z,25.42
2023-04-05T02:54:01.686Z,25.42
2023-04-05T02:55:01.704Z,25.42
2023-04-05T02:56:01.718Z,25.40
2023-04-05T02:57:01.728Z,25.40
2023-04-05T02:58:01.836Z,25.39
2023-04-05T02:59:01.801Z,25.38
2023-04-05T03:00:01.815Z,25.41
2023-04-05T03:01:01.889Z,25.41
2023-04-05T03:02:01.764Z,25.41
2023-04-05T03:03:01.824Z,25.40
2023-04-05T03:04:01.817Z,25.41
2023-04-05T03:05:01.752Z,25.39
2023-04-05T03:06:01.762Z,25.39
2023-04-05T03:07:01.766Z,25.40
2023-04-05T03:08:01.779Z,25.40
2023-04-05T03:09:01.765Z,25.38
2023-04-05T03:10:01.807Z,25.38
2023-04-05T03:11:01.743Z,25.40
2023-04-05T03:12:01.741Z,25.38
2023-04-05T03:13:01.733Z,25.37
2023-04-05T03:14:01.760Z,25.37
2023-04-05T03:15:01.710Z,25.36
2023-04-05T03:16:01.743Z,25.37
2023-04-05T03:17:01.835Z,25.36
2023-04-05T03:18:01.783Z,25.36
2023-04-05T03:19:01.750Z,25.35
2023-04-05T03:20:01.753Z,25.38
2023-04-05T03:21:01.885Z,25.36
2023-04-05T03:22:01.793Z,25.36
2023-04-05T03:23:01.756Z,25.35
2023-04-05T03:24:01.818Z,25.33
2023-04-05T03:25:01.861Z,25.35
2023-04-05T03:26:01.818Z,25.35
2023-04-05T03:27:01.703Z,25.34
2023-04-05T03:28:01.739Z,25.32
2023-04-05T03:29:01.669Z,25.34
2023-04-05T03:30:01.662Z,25.35
2023-04-05T03:31:01.667Z,25.32
2023-04-05T03:32:01.609Z,25.33
2023-04-05T03:33:01.681Z,25.32
2023-04-05T03:34:01.571Z,25.32
2023-04-05T03:35:01.552Z,25.34
2023-04-05T03:36:01.544Z,25.34
2023-04-05T03:37:01.498Z,25.32
2023-04-05T03:38:01.474Z,25.32
2023-04-05T03:39:01.442Z,25.32
2023-04-05T03:40:01.433Z,25.32
2023-04-05T03:41:01.391Z,25.31
2023-04-05T03:42:01.376Z,25.33
2023-04-05T03:43:01.349Z,25.32
2023-04-05T03:44:01.317Z,25.32
2023-04-05T03:45:01.299Z,25.30
2023-04-05T03:46:01.315Z,25.29
2023-04-05T03:47:01.246Z,25.30
2023-04-05T03:48:01.357Z,25.29
2023-04-05T03:49:01.201Z,25.32
2023-04-05T03:50:01.176Z,25.32
2023-04-05T03:51:01.220Z,25.28
2023-04-05T03:52:01.107Z,25.29
2023-04-05T03:53:01.079Z,25.31
2023-04-05T03:54:01.054Z,25.29
2023-04-05T03:55:01.032Z,25.30
2023-04-05T03:56:01.033Z,25.29
2023-04-05T03:57:00.976Z,25.30
2023-04-05T03:58:00.966Z,25.29
2023-04-05T03:59:00.982Z,25.28
2023-04-05T04:00:01.081Z,25.28
2023-04-05T04:01:00.886Z,25.31
2023-04-05T04:02:00.985Z,25.29
2023-04-05T04:03:01.088Z,25.26
2023-04-05T04:04:00.814Z,25.28
2023-04-05T04:05:00.817Z,25.29
2023-04-05T04:06:00.830Z,25.28
2023-04-05T04:07:00.740Z,25.26
2023-04-05T04:08:00.715Z,25.28
2023-04-05T04:09:00.689Z,25.27
2023-04-05T04:10:00.675Z,25.28
2023-04-05T04:11:00.637Z,25.28
2023-04-05T04:12:00.611Z,25.26
2023-04-05T04:13:00.646Z,25.28
2023-04-05T04:14:00.568Z,25.23
2023-04-05T04:15:00.566Z,25.26
2023-04-05T04:16:00.586Z,25.27
2023-04-05T04:17:00.555Z,25.25
2023-04-05T04:18:00.624Z,25.27
2023-04-05T04:19:01.369Z,25.24
2023-04-05T04:20:00.471Z,25.24
2023-04-05T04:21:00.436Z,25.25
2023-04-05T04:22:00.398Z,25.26
2023-04-05T04:23:00.378Z,25.27
2023-04-05T04:24:00.353Z,25.23
2023-04-05T04:25:00.871Z,25.24
2023-04-05T04:26:00.312Z,25.24
2023-04-05T04:27:00.326Z,25.22
2023-04-05T04:28:00.285Z,25.23
2023-04-05T04:29:00.264Z,25.24
2023-04-05T04:30:00.249Z,25.23
2023-04-05T04:31:00.239Z,25.24
2023-04-05T04:32:00.286Z,25.24
2023-04-05T04:33:00.257Z,25.23
2023-04-05T04:34:00.153Z,25.22
2023-04-05T04:35:00.152Z,25.20
2023-04-05T04:36:00.244Z,25.22
2023-04-05T04:37:00.095Z,25.22
2023-04-05T04:38:00.090Z,25.23
2023-04-05T04:39:00.131Z,25.21
2023-04-05T04:40:00.057Z,25.22
2023-04-05T04:41:00.135Z,25.19
2023-04-05T04:42:00.007Z,25.21
2023-04-05T04:43:00.031Z,25.19
2023-04-05T04:43:59.962Z,25.22
2023-04-05T04:44:59.953Z,25.18
2023-04-05T04:45:59.966Z,25.19
2023-04-05T04:47:00.878Z,25.18
2023-04-05T04:47:59.936Z,25.19
2023-04-05T04:48:59.857Z,25.19
2023-04-05T04:49:59.846Z,25.19
2023-04-05T04:50:59.865Z,25.16
2023-04-05T04:51:59.792Z,25.19
2023-04-05T04:52:59.769Z,25.16
2023-04-05T04:53:59.761Z,25.19
2023-04-05T04:54:59.738Z,25.19
2023-04-05T04:56:00.373Z,25.19
2023-04-05T04:56:59.683Z,25.17
2023-04-05T04:57:59.663Z,25.16
2023-04-05T04:58:59.637Z,25.19
2023-04-05T04:59:59.609Z,25.16
2023-04-05T05:00:59.644Z,25.18
2023-04-05T05:01:59.582Z,25.16
2023-04-05T05:02:59.690Z,25.16
2023-04-05T05:03:59.594Z,25.16
2023-04-05T05:04:59.529Z,25.17
2023-04-05T05:05:59.558Z,25.14
2023-04-05T05:06:59.488Z,25.15
2023-04-05T05:07:59.479Z,25.17
2023-04-05T05:08:59.506Z,25.16
2023-04-05T05:09:59.451Z,25.15
2023-04-05T05:10:59.414Z,25.14
2023-04-05T05:11:59.464Z,25.14
2023-04-05T05:12:59.421Z,25.13
2023-04-05T05:13:59.460Z,25.14
2023-04-05T05:14:59.462Z,25.14
2023-04-05T05:15:59.428Z,25.11
2023-04-05T05:16:59.481Z,25.14
2023-04-05T05:17:59.495Z,25.12
2023-04-05T05:18:59.336Z,25.13
2023-04-05T05:19:59.312Z,25.13
2023-04-05T05:20:59.292Z,25.13
2023-04-05T05:21:59.276Z,25.12
2023-04-05T05:22:59.254Z,25.10
2023-04-05T05:23:59.255Z,25.10
2023-04-05T05:24:59.273Z,25.12
2023-04-05T05:25:59.209Z,25.12
2023-04-05T05:26:59.178Z,25.12
2023-04-05T05:27:59.128Z,25.11
2023-04-05T05:28:59.104Z,25.10
2023-04-05T05:29:59.081Z,25.07
2023-04-05T05:30:59.121Z,25.10
2023-04-05T05:31:59.040Z,25.09
2023-04-05T05:32:59.028Z,25.06
2023-04-05T05:33:59.066Z,25.08
2023-04-05T05:34:58.970Z,25.06
2023-04-05T05:35:58.951Z,25.07
2023-04-05T05:36:59.009Z,25.05
2023-04-05T05:37:58.914Z,25.04
2023-04-05T05:38:58.901Z,25.06
2023-04-05T05:39:58.857Z,25.05
2023-04-05T05:40:58.822Z,25.05
2023-04-05T05:41:58.811Z,25.05
2023-04-05T05:42:58.780Z,25.04
2023-04-05T05:43:58.754Z,25.03
2023-04-05T05:44:58.754Z,25.04
2023-04-05T05:45:58.724Z,25.07
2023-04-05T05:46:58.700Z,25.04
2023-04-05T05:47:58.720Z,25.02
2023-04-05T05:48:58.673Z,25.04
2023-04-05T05:49:58.910Z,25.01
2023-04-05T05:50:58.621Z,25.02
2023-04-05T05:51:58.610Z,25.03
2023-04-05T05:53:00.311Z,25.02
2023-04-05T05:53:58.546Z,25.03
2023-04-05T05:54:58.582Z,25.01
2023-04-05T05:55:58.484Z,25.02
2023-04-05T05:56:58.456Z,25.01
2023-04-05T05:57:58.419Z,25.01
2023-04-05T05:58:58.389Z,24.99
2023-04-05T05:59:58.355Z,25.01
2023-04-05T06:00:58.333Z,25.01
2023-04-05T06:01:58.301Z,25.00
2023-04-05T06:02:58.320Z,25.00
2023-04-05T06:03:58.358Z,24.98
2023-04-05T06:04:58.381Z,24.98
2023-04-05T06:05:58.189Z,24.98
2023-04-05T06:06:58.228Z,24.98
2023-04-05T06:07:58.128Z,24.97
2023-04-05T06:08:58.115Z,24.96
2023-04-05T06:09:58.081Z,24.99
2023-04-05T06:10:58.053Z,25.00
2023-04-05T06:11:58.022Z,24.98
2023-04-05T06:12:57.989Z,24.98
2023-04-05T06:13:57.947Z,24.98
2023-04-05T06:14:57.933Z,24.98
2023-04-05T06:15:57.952Z,24.99
2023-04-05T06:16:57.878Z,24.96
2023-04-05T06:17:57.939Z,24.95
2023-04-05T06:18:57.814Z,24.96
2023-04-05T06:19:57.791Z,24.95
2023-04-05T06:20:57.768Z,24.95
2023-04-05T06:21:57.736Z,24.95
2023-04-05T06:22:58.413Z,24.96
2023-04-05T06:23:57.695Z,24.95
2023-04-05T06:24:57.670Z,24.94
2023-04-05T06:25:57.638Z,24.96
2023-04-05T06:26:57.613Z,24.93
2023-04-05T06:27:57.600Z,24.94
2023-04-05T06:28:57.600Z,24.93
2023-04-05T06:29:57.517Z,24.93
2023-04-05T06:30:57.484Z,24.93
2023-04-05T06:31:58.485Z,24.93
2023-04-05T06:32:57.530Z,24.94
2023-04-05T06:33:57.398Z,24.92
2023-04-05T06:34:57.365Z,24.90
2023-04-05T06:35:57.367Z,24.92
2023-04-05T06:36:57.306Z,24.85
2023-04-05T06:37:57.265Z,24.60
2023-04-05T06:38:57.257Z,24.19
2023-04-05T06:39:57.200Z,23.75
2023-04-05T06:40:57.152Z,23.44
2023-04-05T06:41:57.119Z,23.17
2023-04-05T06:42:57.066Z,22.97
2023-04-05T06:43:57.035Z,22.80
2023-04-05T06:44:56.975Z,22.63
2023-04-05T06:45:57.027Z,22.47
2023-04-05T06:46:56.877Z,22.34
2023-04-05T06:47:56.894Z,22.22
2023-04-05T06:48:56.785Z,22.13
2023-04-05T06:49:56.734Z,22.08
2023-04-05T06:50:56.689Z,22.08
2023-04-05T06:51:56.651Z,22.16
2023-04-05T06:52:56.828Z,22.31
2023-04-05T06:53:56.567Z,22.46
2023-04-05T06:54:56.525Z,22.64
2023-04-05T06:55:57.420Z,22.76
2023-04-05T06:56:56.410Z,22.85
2023-04-05T06:57:56.368Z,22.92
2023-04-05T06:58:56.342Z,22.96
2023-04-05T06:59:56.278Z,23.00
2023-04-05T07:00:56.266Z,23.05
2023-04-05T07:01:56.282Z,23.07
2023-04-05T07:02:56.221Z,23.05
2023-04-05T07:03:56.122Z,22.99
2023-04-05T07:04:56.126Z,22.99
2023-04-05T07:05:56.019Z,22.95
2023-04-05T07:06:55.987Z,22.90
2023-04-05T07:07:55.942Z,22.85
2023-04-05T07:08:55.919Z,22.84
2023-04-05T07:09:55.864Z,22.79
2023-04-05T07:10:55.830Z,22.73
2023-04-05T07:11:55.753Z,22.75
2023-04-05T07:12:55.709Z,22.71
2023-04-05T07:13:55.669Z,22.61
2023-04-05T07:14:55.613Z,22.58
2023-04-05T07:15:55.575Z,22.52
2023-04-05T07:16:55.523Z,22.49
2023-04-05T07:17:55.470Z,22.46
2023-04-05T07:18:55.928Z,22.39
2023-04-05T07:19:55.384Z,22.32
2023-04-05T07:20:55.381Z,22.24
2023-04-05T07:21:55.361Z,22.15
2023-04-05T07:22:55.359Z,22.07
2023-04-05T07:23:55.365Z,22.02
2023-04-05T07:24:55.371Z,22.02
2023-04-05T07:25:55.377Z,22.07
2023-04-05T07:26:55.393Z,22.11
2023-04-05T07:27:55.407Z,22.15
2023-04-05T07:28:55.431Z,22.19
2023-04-05T07:29:55.447Z,22.24
2023-04-05T07:30:55.464Z,22.26
2023-04-05T07:31:55.537Z,22.29
2023-04-05T07:32:55.513Z,22.27
2023-04-05T07:33:55.523Z,22.30
2023-04-05T07:34:55.507Z,22.32
2023-04-05T07:35:55.558Z,22.35
2023-04-05T07:36:55.528Z,22.36
2023-04-05T07:37:55.540Z,22.34
2023-04-05T07:38:55.571Z,22.35
2023-04-05T07:39:55.565Z,22.35
2023-04-05T07:40:55.584Z,22.36
2023-04-05T07:41:55.591Z,22.38
2023-04-05T07:42:55.595Z,22.39
2023-04-05T07:43:55.605Z,22.40
2023-04-05T07:44:55.634Z,22.38
2023-04-05T07:45:55.675Z,22.39
2023-04-05T07:46:55.711Z,22.39
2023-04-05T07:47:55.674Z,22.44
2023-04-05T07:48:55.635Z,22.46
2023-04-05T07:49:55.628Z,22.48
2023-04-05T07:50:55.634Z,22.50
2023-04-05T07:51:55.623Z,22.51
2023-04-05T07:52:55.639Z,22.55
2023-04-05T07:53:55.624Z,22.54
2023-04-05T07:54:55.622Z,22.55
2023-04-05T07:55:55.619Z,22.56
2023-04-05T07:56:55.625Z,22.58
2023-04-05T07:57:55.604Z,22.62
2023-04-05T07:58:55.638Z,22.64
2023-04-05T07:59:55.593Z,22.61
2023-04-05T08:00:55.584Z,22.64
2023-04-05T08:01:59.254Z,22.61
2023-04-05T08:03:55.551Z,22.65
2023-04-05T08:04:55.433Z,22.64
2023-04-05T08:05:55.350Z,22.66
2023-04-05T08:06:55.315Z,22.66
2023-04-05T08:07:55.235Z,22.66
2023-04-05T08:08:55.185Z,22.64
2023-04-05T08:09:55.147Z,22.63
2023-04-05T08:10:55.085Z,22.63
2023-04-05T08:11:55.025Z,22.62
2023-04-05T08:12:54.984Z,22.61
2023-04-05T08:13:54.922Z,22.62
2023-04-05T08:14:54.869Z,22.60
2023-04-05T08:15:54.929Z,22.58
2023-04-05T08:16:54.753Z,22.58
2023-04-05T08:17:54.694Z,22.59
2023-04-05T08:18:54.646Z,22.58
2023-04-05T08:19:55.453Z,22.58
2023-04-05T08:20:54.562Z,22.56
2023-04-05T08:21:54.520Z,22.56
2023-04-05T08:22:54.492Z,22.54
2023-04-05T08:23:54.454Z,22.58
2023-04-05T08:24:54.450Z,22.57
2023-04-05T08:25:54.382Z,22.55
2023-04-05T08:26:54.340Z,22.57
2023-04-05T08:27:54.305Z,22.56
2023-04-05T08:28:54.278Z,22.56
2023-04-05T08:29:54.235Z,22.56
2023-04-05T08:30:54.201Z,22.57
2023-04-05T08:31:54.285Z,22.55
2023-04-05T08:32:54.217Z,22.58
2023-04-05T08:33:54.068Z,22.56
2023-04-05T08:34:54.040Z,22.58
2023-04-05T08:35:54.025Z,22.57
2023-04-05T08:36:54.457Z,22.58
2023-04-05T08:37:53.930Z,22.55
2023-04-05T08:38:53.909Z,22.58
2023-04-05T08:39:53.850Z,22.56
2023-04-05T08:40:53.783Z,22.55
2023-04-05T08:41:53.748Z,22.55
2023-04-05T08:42:53.697Z,22.54
2023-04-05T08:43:53.661Z,22.56
2023-04-05T08:44:53.606Z,22.58
2023-04-05T08:45:53.670Z,22.56
2023-04-05T08:46:53.504Z,22.57
2023-04-05T08:47:53.497Z,22.55
2023-04-05T08:48:53.396Z,22.57
2023-04-05T08:49:53.351Z,22.57
2023-04-05T08:50:53.301Z,22.58
2023-04-05T08:51:53.252Z,22.59
2023-04-05T08:52:53.210Z,22.60
2023-04-05T08:53:53.163Z,22.62
2023-04-05T08:54:53.106Z,22.62
2023-04-05T08:55:53.050Z,22.64
2023-04-05T08:56:52.995Z,22.63
2023-04-05T08:57:52.938Z,22.64
2023-04-05T08:58:52.884Z,22.64
2023-04-05T08:59:52.811Z,22.66
2023-04-05T09:00:52.790Z,22.68
2023-04-05T09:01:52.710Z,22.68
2023-04-05T09:02:52.775Z,22.68
2023-04-05T09:03:52.619Z,22.67
2023-04-05T09:04:52.542Z,22.68
2023-04-05T09:05:52.488Z,22.71
2023-04-05T09:06:52.478Z,22.71
2023-04-05T09:07:52.372Z,22.71
2023-04-05T09:08:52.370Z,22.71
2023-04-05T09:09:52.265Z,22.71
2023-04-05T09:10:52.204Z,22.71
2023-04-05T09:11:52.135Z,22.71
2023-04-05T09:12:53.199Z,22.73
2023-04-05T09:13:52.027Z,22.72
2023-04-05T09:14:51.985Z,22.72
2023-04-05T09:15:51.927Z,22.71
2023-04-05T09:16:51.913Z,22.72
2023-04-05T09:17:51.825Z,22.74
2023-04-05T09:18:51.769Z,22.72
2023-04-05T09:19:51.732Z,22.75
2023-04-05T09:20:51.639Z,22.75
2023-04-05T09:21:51.636Z,22.77
2023-04-05T09:22:51.523Z,22.76
2023-04-05T09:23:52.396Z,22.78
2023-04-05T09:24:51.990Z,22.77
2023-04-05T09:25:51.360Z,22.79
2023-04-05T09:26:51.294Z,22.79
2023-04-05T09:27:51.997Z,22.81
2023-04-05T09:28:51.177Z,22.80
2023-04-05T09:29:51.112Z,22.82
2023-04-05T09:30:51.052Z,22.86
2023-04-05T09:31:51.028Z,22.84
2023-04-05T09:32:50.986Z,22.85
2023-04-05T09:33:50.855Z,22.86
2023-04-05T09:34:53.382Z,22.88
2023-04-05T09:35:50.744Z,22.89
2023-04-05T09:36:50.659Z,22.89
2023-04-05T09:37:50.685Z,22.89
2023-04-05T09:38:50.530Z,22.91
2023-04-05T09:39:50.449Z,22.91
2023-04-05T09:40:50.376Z,22.92
2023-04-05T09:41:50.348Z,22.91
2023-04-05T09:42:50.249Z,22.92
2023-04-05T09:43:50.173Z,22.94
2023-04-05T09:44:50.500Z,22.93
2023-04-05T09:45:50.075Z,22.97
2023-04-05T09:46:49.978Z,22.96
2023-04-05T09:47:50.292Z,22.96
2023-04-05T09:48:50.511Z,22.98
2023-04-05T09:49:49.813Z,22.99
2023-04-05T09:50:49.717Z,23.01
2023-04-05T09:51:49.644Z,22.99
2023-04-05T09:52:49.589Z,23.01
2023-04-05T09:53:49.529Z,23.01
2023-04-05T09:54:49.451Z,23.02
2023-04-05T09:55:49.384Z,23.02
2023-04-05T09:56:49.315Z,23.04
2023-04-05T09:57:49.252Z,23.06
2023-04-05T09:58:49.209Z,23.07
2023-04-05T09:59:49.122Z,23.05
2023-04-05T10:00:49.073Z,23.08
2023-04-05T10:01:49.005Z,23.09
2023-04-05T10:02:48.997Z,23.08
2023-04-05T10:03:48.969Z,23.10
2023-04-05T10:04:48.790Z,23.10
2023-04-05T10:05:48.730Z,23.11
2023-04-05T10:06:48.789Z,23.14
2023-04-05T10:07:48.592Z,23.13
2023-04-05T10:08:48.528Z,23.15
2023-04-05T10:09:48.509Z,23.15
2023-04-05T10:10:48.464Z,23.16
2023-04-05T10:11:48.344Z,23.17
2023-04-05T10:12:48.264Z,23.19
2023-04-05T10:13:48.196Z,23.18
2023-04-05T10:14:48.137Z,23.21
2023-04-05T10:15:48.092Z,23.21
2023-04-05T10:16:48.113Z,23.22
2023-04-05T10:17:47.979Z,23.22
2023-04-05T10:18:48.500Z,23.23
2023-04-05T10:19:47.816Z,23.24
2023-04-05T10:20:47.779Z,23.24
2023-04-05T10:21:47.706Z,23.26
2023-04-05T10:22:47.649Z,23.26
2023-04-05T10:23:47.584Z,23.26
2023-04-05T10:24:47.525Z,23.27
2023-04-05T10:25:47.468Z,23.29
2023-04-05T10:26:47.410Z,23.31
2023-04-05T10:27:47.361Z,23.30
2023-04-05T10:28:47.280Z,23.33
2023-04-05T10:29:47.241Z,23.34
2023-04-05T10:30:47.160Z,23.33
2023-04-05T10:31:47.166Z,23.37
2023-04-05T10:32:47.201Z,23.37
2023-04-05T10:33:47.209Z,23.40
2023-04-05T10:34:46.934Z,23.38
2023-04-05T10:35:46.924Z,23.40
2023-04-05T10:36:46.791Z,23.41
2023-04-05T10:37:46.792Z,23.42
2023-04-05T10:38:46.670Z,23.44
2023-04-05T10:39:46.657Z,23.45
2023-04-05T10:40:46.605Z,23.44
2023-04-05T10:41:46.495Z,23.47
2023-04-05T10:42:46.435Z,23.49
2023-04-05T10:43:46.349Z,23.51
2023-04-05T10:44:46.384Z,23.53
2023-04-05T10:45:46.390Z,23.54
2023-04-05T10:46:46.239Z,23.54
2023-04-05T10:47:46.201Z,23.56
2023-04-05T10:48:46.054Z,23.56
2023-04-05T10:49:45.979Z,23.57
2023-04-05T10:50:45.938Z,23.59
2023-04-05T10:51:45.869Z,23.60
2023-04-05T10:52:45.800Z,23.61
2023-04-05T10:53:46.106Z,23.62
2023-04-05T10:54:45.656Z,23.63
2023-04-05T10:55:45.583Z,23.63
2023-04-05T10:56:45.577Z,23.64
2023-04-05T10:57:45.469Z,23.64
2023-04-05T10:58:45.437Z,23.67
2023-04-05T10:59:45.528Z,23.64
2023-04-05T11:00:45.257Z,23.68
2023-04-05T11:01:45.211Z,23.71
2023-04-05T11:02:45.195Z,23.72
2023-04-05T11:03:45.164Z,23.72
2023-04-05T11:04:45.076Z,23.73
2023-04-05T11:05:44.933Z,23.74
2023-04-05T11:06:44.862Z,23.77
2023-04-05T11:07:45.525Z,23.75
2023-04-05T11:08:45.512Z,23.78
2023-04-05T11:09:44.698Z,23.78
2023-04-05T11:10:45.027Z,23.80
2023-04-05T11:11:44.567Z,23.80
2023-04-05T11:12:44.518Z,23.82
2023-04-05T11:13:47.177Z,23.84
2023-04-05T11:14:44.395Z,23.84
2023-04-05T11:15:45.101Z,23.87
2023-04-05T11:16:44.390Z,23.87
2023-04-05T11:17:44.269Z,23.88
2023-04-05T11:18:44.168Z,23.89
2023-04-05T11:19:45.026Z,23.92
2023-04-05T11:20:44.200Z,23.92
2023-04-05T11:21:43.958Z,23.91
2023-04-05T11:22:43.895Z,23.94
2023-04-05T11:23:43.844Z,23.93
2023-04-05T11:24:43.776Z,23.98
2023-04-05T11:25:43.742Z,23.97
2023-04-05T11:26:43.661Z,23.99
2023-04-05T11:27:44.532Z,23.99
2023-04-05T11:28:43.547Z,24.00
2023-04-05T11:29:43.491Z,24.01
2023-04-05T11:30:43.601Z,24.02
2023-04-05T11:31:43.401Z,24.04
2023-04-05T11:32:43.638Z,24.05
2023-04-05T11:33:43.907Z,24.08
2023-04-05T11:34:43.187Z,24.16
2023-04-05T11:35:43.163Z,24.18
2023-04-05T11:36:43.050Z,24.25
2023-04-05T11:37:43.059Z,24.25
2023-04-05T11:38:42.936Z,24.33
2023-04-05T11:39:42.868Z,24.51
2023-04-05T11:40:43.073Z,24.55
2023-04-05T11:41:42.815Z,24.59
2023-04-05T11:42:42.692Z,24.68
2023-04-05T11:43:42.688Z,24.88
2023-04-05T11:44:42.574Z,24.81
2023-04-05T11:45:42.531Z,24.68
2023-04-05T11:46:42.528Z,24.63
2023-04-05T11:47:42.505Z,24.63
2023-04-05T11:48:42.338Z,24.83
2023-04-05T11:49:42.598Z,24.28
2023-04-05T11:50:42.731Z,23.90
2023-04-05T11:51:42.253Z,23.80
2023-04-05T11:52:42.257Z,23.70
2023-04-05T11:53:42.392Z,24.37
2023-04-05T11:54:42.263Z,24.45
2023-04-05T11:55:42.645Z,24.62
2023-04-05T11:56:42.264Z,24.71
2023-04-05T11:57:42.270Z,24.77
2023-04-05T11:58:42.272Z,24.99
2023-04-05T11:59:42.270Z,25.00
2023-04-05T12:00:42.426Z,25.05
2023-04-05T12:01:42.274Z,25.02
2023-04-05T12:02:42.369Z,25.07
2023-04-05T12:03:42.404Z,25.10
2023-04-05T12:04:42.329Z,25.14
2023-04-05T12:05:42.441Z,25.31
2023-04-05T12:06:42.269Z,25.72
2023-04-05T12:07:42.286Z,26.02
2023-04-05T12:08:42.503Z,26.21
2023-04-05T12:09:42.255Z,26.33
2023-04-05T12:10:42.287Z,26.51
2023-04-05T12:11:42.242Z,26.78
2023-04-05T12:12:42.245Z,26.82
2023-04-05T12:13:42.234Z,26.92
2023-04-05T12:14:42.233Z,27.00
2023-04-05T12:15:42.516Z,26.80
2023-04-05T12:16:42.251Z,26.94
2023-04-05T12:17:42.237Z,27.33
2023-04-05T12:18:42.195Z,27.54
2023-04-05T12:19:42.180Z,27.68
2023-04-05T12:20:42.190Z,27.91
2023-04-05T12:21:42.555Z,28.09
2023-04-05T12:22:42.175Z,28.23
2023-04-05T12:23:42.153Z,28.29
2023-04-05T12:24:42.551Z,28.38
2023-04-05T12:25:42.393Z,28.44
2023-04-05T12:26:42.114Z,28.90
2023-04-05T12:27:42.114Z,29.41
2023-04-05T12:28:42.111Z,29.51
2023-04-05T12:29:42.120Z,29.85
2023-04-05T12:30:42.175Z,29.77
2023-04-05T12:31:42.160Z,29.56
2023-04-05T12:32:42.157Z,30.01
2023-04-05T12:33:42.141Z,30.13
2023-04-05T12:34:42.088Z,30.39
2023-04-05T12:35:42.305Z,30.61
2023-04-05T12:36:42.566Z,30.73
2023-04-05T12:37:42.052Z,30.73
2023-04-05T12:38:42.073Z,30.72
2023-04-05T12:39:42.046Z,30.55
2023-04-05T12:40:42.041Z,30.73
2023-04-05T12:41:42.030Z,30.63
2023-04-05T12:42:42.096Z,30.74
2023-04-05T12:43:42.050Z,30.81
2023-04-05T12:44:42.034Z,30.87
2023-04-05T12:45:42.529Z,31.05
2023-04-05T12:46:42.081Z,31.10
2023-04-05T12:47:42.075Z,31.36
2023-04-05T12:48:42.024Z,31.55
2023-04-05T12:49:42.010Z,31.53
2023-04-05T12:50:42.019Z,31.51
2023-04-05T12:51:41.999Z,31.55
2023-04-05T12:52:41.997Z,31.64
2023-04-05T12:53:41.994Z,31.71